createdAt,value
2022-08-22T00:02:53.349Z,6.0
2022-08-22T00:06:38.644Z,4.7
2022-08-22T00:14:10.993Z,4.9
2022-08-22T00:21:43.333Z,4.9
2022-08-22T00:29:15.674Z,4.9
2022-08-22T00:36:48.845Z,4.9
2022-08-22T00:44:21.199Z,4.9
2022-08-22T00:51:53.545Z,4.9
2022-08-22T00:59:25.889Z,4.9
2022-08-22T01:06:58.238Z,5.3
2022-08-22T01:14:34.843Z,5.3
2022-08-22T01:22:07.632Z,5.3
2022-08-22T01:29:39.998Z,5.3
2022-08-22T01:37:12.932Z,5.3
2022-08-22T01:44:45.281Z,5.3
2022-08-22T01:52:17.839Z,5.3
2022-08-22T01:59:52.113Z,5.3
2022-08-22T02:07:32.087Z,4.9
2022-08-22T02:15:04.687Z,4.9
2022-08-22T02:22:37.041Z,4.9
2022-08-22T02:30:17.050Z,4.9
2022-08-22T02:37:49.408Z,4.9
2022-08-22T02:45:21.720Z,4.9
2022-08-22T02:52:54.067Z,4.9
2022-08-22T03:00:31.659Z,4.9
2022-08-22T03:08:05.469Z,4.8
2022-08-22T03:15:37.806Z,4.8
2022-08-22T03:23:10.144Z,4.8
2022-08-22T03:30:42.506Z,4.8
2022-08-22T03:38:14.846Z,4.8
2022-08-22T03:45:47.190Z,4.8
2022-08-22T03:53:19.540Z,4.8
2022-08-22T04:00:52.480Z,4.8
2022-08-22T04:08:16.418Z,3.9
2022-08-22T04:09:03.840Z,3.9
2022-08-22T04:09:52.248Z,3.9
2022-08-22T04:10:39.872Z,3.9
2022-08-22T04:11:27.223Z,3.9
2022-08-22T04:12:14.580Z,3.9
2022-08-22T04:13:01.934Z,3.9
2022-08-22T04:13:49.293Z,3.9
2022-08-22T04:14:36.784Z,3.9
2022-08-22T04:15:24.126Z,3.9
2022-08-22T04:16:11.477Z,3.9
2022-08-22T04:16:58.866Z,3.9
2022-08-22T04:17:46.201Z,3.9
2022-08-22T04:18:33.557Z,3.9
2022-08-22T04:19:20.897Z,3.9
2022-08-22T04:20:08.240Z,3.9
2022-08-22T04:20:55.581Z,3.9
2022-08-22T04:21:42.942Z,3.9
2022-08-22T04:22:30.300Z,3.9
2022-08-22T04:23:17.653Z,3.9
2022-08-22T04:24:05.002Z,3.9
2022-08-22T04:24:52.523Z,3.9
2022-08-22T04:25:39.980Z,3.9
2022-08-22T04:26:27.335Z,3.9
2022-08-22T04:27:14.675Z,3.9
2022-08-22T04:28:02.062Z,3.9
2022-08-22T04:28:49.447Z,3.9
2022-08-22T04:29:36.778Z,3.9
2022-08-22T04:30:24.148Z,3.9
2022-08-22T04:31:11.497Z,3.9
2022-08-22T04:31:58.839Z,3.9
2022-08-22T04:32:46.617Z,3.9
2022-08-22T04:33:33.987Z,3.9
2022-08-22T04:34:21.421Z,3.9
2022-08-22T04:35:08.788Z,3.9
2022-08-22T04:35:57.560Z,3.9
2022-08-22T04:36:44.958Z,3.9
2022-08-22T04:37:32.348Z,3.9
2022-08-22T04:38:19.690Z,3.9
2022-08-22T04:39:07.098Z,3.9
2022-08-22T04:39:54.474Z,3.9
2022-08-22T04:40:41.833Z,3.9
2022-08-22T04:41:29.221Z,3.9
2022-08-22T04:42:32.305Z,3.9
2022-08-22T04:43:13.923Z,3.9
2022-08-22T04:44:01.309Z,3.9
2022-08-22T04:44:48.662Z,3.9
2022-08-22T04:45:36.016Z,3.9
2022-08-22T04:46:23.398Z,3.9
2022-08-22T04:47:10.730Z,3.9
2022-08-22T04:47:58.563Z,3.9
2022-08-22T04:48:45.928Z,3.9
2022-08-22T04:49:33.514Z,3.9
2022-08-22T04:50:20.845Z,3.9
2022-08-22T04:51:08.234Z,3.9
2022-08-22T04:51:55.624Z,3.9
2022-08-22T04:52:42.982Z,3.9
2022-08-22T04:53:30.344Z,3.9
2022-08-22T04:54:17.768Z,3.9
2022-08-22T04:55:05.109Z,3.9
2022-08-22T04:55:52.445Z,3.9
2022-08-22T04:56:39.885Z,3.9
2022-08-22T04:57:27.229Z,3.9
2022-08-22T04:58:14.586Z,3.9
2022-08-22T04:59:02.945Z,3.9
2022-08-22T04:59:50.541Z,3.9
2022-08-22T05:00:38.524Z,4.8
2022-08-22T05:01:26.106Z,4.8
2022-08-22T05:02:13.472Z,4.8
2022-08-22T05:03:00.821Z,4.8
2022-08-22T05:03:48.161Z,4.8
2022-08-22T05:04:35.506Z,4.8
2022-08-22T05:05:22.861Z,4.8
2022-08-22T05:06:10.376Z,4.8
2022-08-22T05:06:57.725Z,4.8
2022-08-22T05:07:45.105Z,4.8
2022-08-22T05:08:32.485Z,4.8
2022-08-22T05:09:19.849Z,4.8
2022-08-22T05:10:12.004Z,4.8
2022-08-22T05:10:59.864Z,4.8
2022-08-22T05:11:47.243Z,4.8
2022-08-22T05:12:34.622Z,4.8
2022-08-22T05:13:21.989Z,4.8
2022-08-22T05:14:09.385Z,4.8
2022-08-22T05:14:56.748Z,4.8
2022-08-22T05:15:44.106Z,4.8
2022-08-22T05:16:32.357Z,4.8
2022-08-22T05:17:19.708Z,4.8
2022-08-22T05:18:07.301Z,4.8
2022-08-22T05:18:54.654Z,4.8
2022-08-22T05:19:42.064Z,4.8
2022-08-22T05:20:29.425Z,4.8
2022-08-22T05:21:16.769Z,4.8
2022-08-22T05:22:04.608Z,4.8
2022-08-22T05:22:52.219Z,4.8
2022-08-22T05:23:39.566Z,4.8
2022-08-22T05:24:28.021Z,4.8
2022-08-22T05:25:15.674Z,4.8
2022-08-22T05:26:03.012Z,4.8
2022-08-22T05:26:50.352Z,4.8
2022-08-22T05:27:37.717Z,4.8
2022-08-22T05:28:25.083Z,4.8
2022-08-22T05:29:12.438Z,4.8
2022-08-22T05:29:59.789Z,4.8
2022-08-22T05:30:47.425Z,4.8
2022-08-22T05:31:34.770Z,4.8
2022-08-22T05:32:22.645Z,4.8
2022-08-22T05:33:10.156Z,4.8
2022-08-22T05:33:57.522Z,4.8
2022-08-22T05:34:44.890Z,4.8
2022-08-22T05:35:32.250Z,4.8
2022-08-22T05:36:19.658Z,4.8
2022-08-22T05:37:08.101Z,4.8
2022-08-22T05:37:55.773Z,4.8
2022-08-22T05:38:43.165Z,4.8
2022-08-22T05:39:30.526Z,4.8
2022-08-22T05:40:18.038Z,4.8
2022-08-22T05:41:05.458Z,4.8
2022-08-22T05:41:52.876Z,4.8
2022-08-22T05:42:40.420Z,4.8
2022-08-22T05:43:27.788Z,4.8
2022-08-22T05:44:15.155Z,4.8
2022-08-22T05:45:02.513Z,4.8
2022-08-22T05:45:49.956Z,4.8
2022-08-22T05:46:37.331Z,4.8
2022-08-22T05:47:24.904Z,4.8
2022-08-22T05:48:12.249Z,4.8
2022-08-22T05:48:59.585Z,4.8
2022-08-22T05:49:46.929Z,4.8
2022-08-22T05:50:34.370Z,4.8
2022-08-22T05:51:21.746Z,4.8
2022-08-22T05:52:09.088Z,4.8
2022-08-22T05:52:56.526Z,4.8
2022-08-22T05:53:43.869Z,4.8
2022-08-22T05:54:34.429Z,4.8
2022-08-22T05:55:22.096Z,4.8
2022-08-22T05:56:09.513Z,4.8
2022-08-22T05:56:56.852Z,4.8
2022-08-22T05:57:44.193Z,4.8
2022-08-22T05:58:31.628Z,4.8
2022-08-22T05:59:18.980Z,4.8
2022-08-22T06:00:06.316Z,8.9
2022-08-22T06:00:53.752Z,8.9
2022-08-22T06:01:41.147Z,8.9
2022-08-22T06:02:28.507Z,8.9
2022-08-22T06:03:15.910Z,8.9
2022-08-22T06:04:03.254Z,8.9
2022-08-22T06:04:51.102Z,8.9
2022-08-22T06:05:38.614Z,8.9
2022-08-22T06:06:26.039Z,8.9
2022-08-22T06:07:13.395Z,8.9
2022-08-22T06:08:00.967Z,8.9
2022-08-22T06:08:48.853Z,8.9
2022-08-22T06:09:36.197Z,8.9
2022-08-22T06:10:23.560Z,8.9
2022-08-22T06:11:10.916Z,8.9
2022-08-22T06:11:58.329Z,8.9
2022-08-22T06:12:46.345Z,8.9
2022-08-22T06:13:33.684Z,8.9
2022-08-22T06:14:21.044Z,8.9
2022-08-22T06:15:12.584Z,8.9
2022-08-22T06:16:00.068Z,8.9
2022-08-22T06:16:47.682Z,8.9
2022-08-22T06:17:36.480Z,8.9
2022-08-22T06:18:23.830Z,8.9
2022-08-22T06:19:19.320Z,8.9
2022-08-22T06:20:07.345Z,8.9
2022-08-22T06:20:54.774Z,8.9
2022-08-22T06:21:42.120Z,8.9
2022-08-22T06:22:29.473Z,8.9
2022-08-22T06:23:16.886Z,8.9
2022-08-22T06:24:04.265Z,8.9
2022-08-22T06:24:51.615Z,8.9
2022-08-22T06:25:39.038Z,8.9
2022-08-22T06:26:26.409Z,8.9
2022-08-22T06:27:13.763Z,8.9
2022-08-22T06:28:01.179Z,8.9
2022-08-22T06:28:54.822Z,8.9
2022-08-22T06:29:43.010Z,8.9
2022-08-22T06:30:30.465Z,8.9
2022-08-22T06:31:17.817Z,8.9
2022-08-22T06:32:05.169Z,8.9
2022-08-22T06:33:00.146Z,8.9
2022-08-22T06:33:48.289Z,8.9
2022-08-22T06:34:35.718Z,8.9
2022-08-22T06:35:23.059Z,8.9
2022-08-22T06:36:10.422Z,8.9
2022-08-22T06:36:57.846Z,8.9
2022-08-22T06:37:45.193Z,8.9
2022-08-22T06:38:32.707Z,8.9
2022-08-22T06:39:20.051Z,8.9
2022-08-22T06:40:07.496Z,8.9
2022-08-22T06:40:54.967Z,8.9
2022-08-22T06:41:42.358Z,8.9
2022-08-22T06:42:29.721Z,8.9
2022-08-22T06:43:17.078Z,8.9
2022-08-22T06:44:04.473Z,8.9
2022-08-22T06:44:51.823Z,8.9
2022-08-22T06:45:39.174Z,8.9
2022-08-22T06:46:26.575Z,8.9
2022-08-22T06:47:13.949Z,8.9
2022-08-22T06:48:01.382Z,8.9
2022-08-22T06:48:48.750Z,8.9
2022-08-22T06:49:36.181Z,8.9
2022-08-22T06:50:23.524Z,8.9
2022-08-22T06:51:10.997Z,8.9
2022-08-22T06:51:58.365Z,8.9
2022-08-22T06:52:45.734Z,8.9
2022-08-22T06:53:33.121Z,8.9
2022-08-22T06:54:20.579Z,8.9
2022-08-22T06:55:07.934Z,8.9
2022-08-22T06:55:55.361Z,8.9
2022-08-22T06:56:42.703Z,8.9
2022-08-22T06:57:30.052Z,8.9
2022-08-22T06:58:17.950Z,8.9
2022-08-22T06:59:05.505Z,8.9
2022-08-22T06:59:52.858Z,8.9
2022-08-22T07:00:40.204Z,8.5
2022-08-22T07:01:27.706Z,8.5
2022-08-22T07:02:15.097Z,8.5
2022-08-22T07:03:03.734Z,8.5
2022-08-22T07:03:51.172Z,8.5
2022-08-22T07:04:38.507Z,8.5
2022-08-22T07:05:26.657Z,8.5
2022-08-22T07:06:14.018Z,8.5
2022-08-22T07:07:01.407Z,8.5
2022-08-22T07:07:48.767Z,8.5
2022-08-22T07:08:39.175Z,8.5
2022-08-22T07:09:26.713Z,8.5
2022-08-22T07:10:14.128Z,8.5
2022-08-22T07:11:03.129Z,8.5
2022-08-22T07:11:50.483Z,8.5
2022-08-22T07:12:37.819Z,8.5
2022-08-22T07:13:25.162Z,8.5
2022-08-22T07:14:12.514Z,8.5
2022-08-22T07:14:59.865Z,8.5
2022-08-22T07:15:47.213Z,8.5
2022-08-22T07:16:34.557Z,8.5
2022-08-22T07:17:21.920Z,8.5
2022-08-22T07:18:09.272Z,8.5
2022-08-22T07:18:56.616Z,8.5
2022-08-22T07:19:43.998Z,8.5
2022-08-22T07:20:31.393Z,8.5
2022-08-22T07:21:18.760Z,8.5
2022-08-22T07:22:10.808Z,8.5
2022-08-22T07:22:58.229Z,8.5
2022-08-22T07:23:45.635Z,8.5
2022-08-22T07:24:33.157Z,8.5
2022-08-22T07:25:20.567Z,8.5
2022-08-22T07:26:07.906Z,8.5
2022-08-22T07:26:55.277Z,8.5
2022-08-22T07:27:42.706Z,8.5
2022-08-22T07:28:37.111Z,8.5
2022-08-22T07:29:27.421Z,8.5
2022-08-22T07:30:14.846Z,8.5
2022-08-22T07:31:02.563Z,8.5
2022-08-22T07:31:50.283Z,8.5
2022-08-22T07:32:37.677Z,8.5
2022-08-22T07:33:27.030Z,8.5
2022-08-22T07:34:14.673Z,8.5
2022-08-22T07:35:02.058Z,8.5
2022-08-22T07:35:53.453Z,8.5
2022-08-22T07:36:41.144Z,8.5
2022-08-22T07:37:28.808Z,8.5
2022-08-22T07:38:16.158Z,8.5
2022-08-22T07:39:03.492Z,8.5
2022-08-22T07:39:50.963Z,8.5
2022-08-22T07:40:41.112Z,8.5
2022-08-22T07:41:28.483Z,8.5
2022-08-22T07:42:15.894Z,8.5
2022-08-22T07:43:03.271Z,8.5
2022-08-22T07:43:50.640Z,8.5
2022-08-22T07:44:38.010Z,8.5
2022-08-22T07:45:25.366Z,8.5
2022-08-22T07:46:12.750Z,8.5
2022-08-22T07:47:00.111Z,8.5
2022-08-22T07:47:49.804Z,8.5
2022-08-22T07:48:48.617Z,8.5
2022-08-22T07:49:34.604Z,8.5
2022-08-22T07:50:22.027Z,8.5
2022-08-22T07:51:09.393Z,8.5
2022-08-22T07:51:56.745Z,8.5
2022-08-22T07:52:44.401Z,8.5
2022-08-22T07:53:31.746Z,8.5
2022-08-22T07:54:19.090Z,8.5
2022-08-22T07:55:06.484Z,8.5
2022-08-22T07:55:53.837Z,8.5
2022-08-22T07:56:41.178Z,8.5
2022-08-22T07:57:28.607Z,8.5
2022-08-22T07:58:15.952Z,8.5
2022-08-22T07:59:07.997Z,8.5
2022-08-22T07:59:57.181Z,8.5
2022-08-22T08:00:44.561Z,11.4
2022-08-22T08:01:32.033Z,11.4
2022-08-22T08:02:19.416Z,11.4
2022-08-22T08:03:06.810Z,11.4
2022-08-22T08:03:54.184Z,11.4
2022-08-22T08:04:41.545Z,11.4
2022-08-22T08:05:28.956Z,11.4
2022-08-22T08:06:16.326Z,11.4
2022-08-22T08:07:03.737Z,11.4
2022-08-22T08:07:51.113Z,11.4
2022-08-22T08:08:38.478Z,11.4
2022-08-22T08:09:25.851Z,11.4
2022-08-22T08:10:13.373Z,11.4
2022-08-22T08:11:00.754Z,11.4
2022-08-22T08:11:48.591Z,11.4
2022-08-22T08:12:36.014Z,11.4
2022-08-22T08:13:23.550Z,11.4
2022-08-22T08:14:13.596Z,11.4
2022-08-22T08:15:01.207Z,11.4
2022-08-22T08:15:48.626Z,11.4
2022-08-22T08:16:35.997Z,11.4
2022-08-22T08:17:23.355Z,11.4
2022-08-22T08:18:10.781Z,11.4
2022-08-22T08:18:58.127Z,11.4
2022-08-22T08:19:45.493Z,11.4
2022-08-22T08:20:32.926Z,11.4
2022-08-22T08:21:20.439Z,11.4
2022-08-22T08:22:07.792Z,11.4
2022-08-22T08:22:55.198Z,11.4
2022-08-22T08:23:42.581Z,11.4
2022-08-22T08:24:31.589Z,11.4
2022-08-22T08:25:27.394Z,11.4
2022-08-22T08:26:14.762Z,11.4
2022-08-22T08:27:02.117Z,11.4
2022-08-22T08:27:50.241Z,11.4
2022-08-22T08:28:45.341Z,11.4
2022-08-22T08:29:32.802Z,11.4
2022-08-22T08:30:20.177Z,11.4
2022-08-22T08:31:07.528Z,11.4
2022-08-22T08:31:54.941Z,11.4
2022-08-22T08:32:42.288Z,11.4
2022-08-22T08:33:29.624Z,11.4
2022-08-22T08:34:17.142Z,11.4
2022-08-22T08:35:04.496Z,11.4
2022-08-22T08:36:03.048Z,11.4
2022-08-22T08:36:49.252Z,11.4
2022-08-22T08:37:36.625Z,11.4
2022-08-22T08:38:23.972Z,11.4
2022-08-22T08:39:11.329Z,11.4
2022-08-22T08:39:58.935Z,11.4
2022-08-22T08:40:48.555Z,11.4
2022-08-22T08:41:36.582Z,11.4
2022-08-22T08:42:24.051Z,11.4
2022-08-22T08:43:11.422Z,11.4
2022-08-22T08:43:58.836Z,11.4
2022-08-22T08:44:46.197Z,11.4
2022-08-22T08:45:33.566Z,11.4
2022-08-22T08:46:20.904Z,11.4
2022-08-22T08:47:08.241Z,11.4
2022-08-22T08:47:55.739Z,11.4
2022-08-22T08:48:44.036Z,11.4
2022-08-22T08:49:31.401Z,11.4
2022-08-22T08:50:21.304Z,11.4
2022-08-22T08:52:05.977Z,11.4
2022-08-22T08:52:53.377Z,11.4
2022-08-22T08:53:43.390Z,11.4
2022-08-22T08:54:30.965Z,11.4
2022-08-22T08:55:21.914Z,11.4
2022-08-22T08:56:10.755Z,11.4
2022-08-22T08:56:58.225Z,11.4
2022-08-22T08:57:45.570Z,11.4
2022-08-22T08:58:33.150Z,11.4
2022-08-22T08:59:20.507Z,11.4
2022-08-22T09:00:07.885Z,10.8
2022-08-22T09:00:55.352Z,10.8
2022-08-22T09:01:44.567Z,10.8
2022-08-22T09:02:33.119Z,10.8
2022-08-22T09:03:30.234Z,10.8
2022-08-22T09:04:18.401Z,10.8
2022-08-22T09:05:05.862Z,10.8
2022-08-22T09:05:53.224Z,10.8
2022-08-22T09:06:42.594Z,10.8
2022-08-22T09:07:30.128Z,10.8
2022-08-22T09:08:19.171Z,10.8
2022-08-22T09:09:07.101Z,10.8
2022-08-22T09:09:55.765Z,10.8
2022-08-22T09:10:43.464Z,10.8
2022-08-22T09:11:31.097Z,10.8
2022-08-22T09:12:18.689Z,10.8
2022-08-22T09:13:12.298Z,10.8
2022-08-22T09:14:00.297Z,10.8
2022-08-22T09:14:47.656Z,10.8
2022-08-22T09:15:37.348Z,10.8
2022-08-22T09:16:26.321Z,10.8
2022-08-22T09:17:13.717Z,10.8
2022-08-22T09:18:02.093Z,10.8
2022-08-22T09:18:49.486Z,10.8
2022-08-22T09:19:37.101Z,10.8
2022-08-22T09:20:24.510Z,10.8
2022-08-22T09:21:12.768Z,10.8
2022-08-22T09:22:00.297Z,10.8
2022-08-22T09:22:50.771Z,10.8
2022-08-22T09:23:38.385Z,10.8
2022-08-22T09:24:26.015Z,10.8
2022-08-22T09:25:13.391Z,10.8
2022-08-22T09:26:01.803Z,10.8
2022-08-22T09:26:52.386Z,10.8
2022-08-22T09:27:44.689Z,10.8
2022-08-22T09:28:32.087Z,10.8
2022-08-22T09:29:19.550Z,10.8
2022-08-22T09:30:07.527Z,10.8
2022-08-22T09:30:59.042Z,10.8
2022-08-22T09:31:48.371Z,10.8
2022-08-22T09:32:39.373Z,10.8
2022-08-22T09:33:28.424Z,10.8
2022-08-22T09:34:16.494Z,10.8
2022-08-22T09:35:11.391Z,10.8
2022-08-22T09:35:58.799Z,10.8
2022-08-22T09:36:48.381Z,10.8
2022-08-22T09:37:35.745Z,10.8
2022-08-22T09:38:23.103Z,10.8
2022-08-22T09:39:11.181Z,10.8
2022-08-22T09:39:58.683Z,10.8
2022-08-22T09:40:47.488Z,10.8
2022-08-22T09:41:36.648Z,10.8
2022-08-22T09:42:24.345Z,10.8
2022-08-22T09:43:12.021Z,10.8
2022-08-22T09:43:59.388Z,10.8
2022-08-22T09:44:47.001Z,10.8
2022-08-22T09:45:35.073Z,10.8
2022-08-22T09:46:31.336Z,10.8
2022-08-22T09:47:24.472Z,10.8
2022-08-22T09:48:12.264Z,10.8
2022-08-22T09:48:59.702Z,10.8
2022-08-22T09:49:47.093Z,10.8
2022-08-22T09:50:35.159Z,10.8
2022-08-22T09:51:31.921Z,10.8
2022-08-22T09:52:33.897Z,10.8
2022-08-22T09:53:17.269Z,10.8
2022-08-22T09:54:04.698Z,10.8
2022-08-22T09:54:52.544Z,10.8
2022-08-22T09:55:39.933Z,10.8
2022-08-22T09:56:27.428Z,10.8
2022-08-22T09:57:16.649Z,10.8
2022-08-22T09:58:04.266Z,10.8
2022-08-22T09:58:51.797Z,10.8
2022-08-22T09:59:39.153Z,10.8
2022-08-22T10:00:26.519Z,19.8
2022-08-22T10:01:13.926Z,19.8
2022-08-22T10:02:01.316Z,19.8
2022-08-22T10:02:50.286Z,19.8
2022-08-22T10:03:37.805Z,19.8
2022-08-22T10:04:25.292Z,19.8
2022-08-22T10:05:12.769Z,19.8
2022-08-22T10:06:10.109Z,19.8
2022-08-22T10:06:58.907Z,19.8
2022-08-22T10:07:46.991Z,19.8
2022-08-22T10:08:40.165Z,19.8
2022-08-22T10:09:31.926Z,19.8
2022-08-22T10:10:21.325Z,19.8
2022-08-22T10:17:53.961Z,19.8
2022-08-22T10:25:28.832Z,19.8
2022-08-22T10:33:01.786Z,19.8
2022-08-22T10:40:36.047Z,19.8
2022-08-22T10:48:10.479Z,19.8
2022-08-22T10:55:43.630Z,19.8
2022-08-22T10:57:27.990Z,19.8
2022-08-22T10:58:15.498Z,19.8
2022-08-22T10:59:02.853Z,19.8
2022-08-22T10:59:51.392Z,19.8
2022-08-22T11:00:38.776Z,14.3
2022-08-22T11:01:38.539Z,14.3
2022-08-22T11:02:29.569Z,14.3
2022-08-22T11:03:21.816Z,14.3
2022-08-22T11:04:12.212Z,14.3
2022-08-22T11:04:59.741Z,14.3
2022-08-22T11:05:48.879Z,14.3
2022-08-22T11:06:38.055Z,14.3
2022-08-22T11:07:25.616Z,14.3
2022-08-22T11:08:13.780Z,14.3
2022-08-22T11:09:01.389Z,14.3
2022-08-22T11:09:49.665Z,14.3
2022-08-22T11:10:41.209Z,14.3
2022-08-22T11:11:32.578Z,14.3
2022-08-22T11:12:20.677Z,14.3
2022-08-22T11:13:08.212Z,14.3
2022-08-22T11:13:55.775Z,14.3
2022-08-22T11:14:43.732Z,14.3
2022-08-22T11:15:35.166Z,14.3
2022-08-22T11:16:22.695Z,14.3
2022-08-22T11:18:13.030Z,14.3
2022-08-22T11:19:02.118Z,14.3
2022-08-22T11:19:50.647Z,14.3
2022-08-22T11:20:38.045Z,14.3
2022-08-22T11:21:25.427Z,14.3
2022-08-22T11:22:16.152Z,14.3
2022-08-22T11:23:03.536Z,14.3
2022-08-22T11:23:51.685Z,14.3
2022-08-22T11:24:46.514Z,14.3
2022-08-22T11:25:39.007Z,14.3
2022-08-22T11:26:29.998Z,14.3
2022-08-22T11:27:25.432Z,14.3
2022-08-22T11:28:21.298Z,14.3
2022-08-22T11:29:13.481Z,14.3
2022-08-22T11:30:02.104Z,14.3
2022-08-22T11:30:49.755Z,14.3
2022-08-22T11:31:37.834Z,14.3
2022-08-22T11:32:34.603Z,14.3
2022-08-22T11:33:22.553Z,14.3
2022-08-22T11:34:20.564Z,14.3
2022-08-22T11:35:08.871Z,14.3
2022-08-22T11:35:56.678Z,14.3
2022-08-22T11:36:46.438Z,14.3
2022-08-22T11:37:43.532Z,14.3
2022-08-22T11:38:32.556Z,14.3
2022-08-22T11:39:20.381Z,14.3
2022-08-22T11:40:07.807Z,14.3
2022-08-22T11:40:59.264Z,14.3
2022-08-22T11:41:52.209Z,14.3
2022-08-22T11:42:47.407Z,14.3
2022-08-22T11:43:35.164Z,14.3
2022-08-22T11:44:22.583Z,14.3
2022-08-22T11:45:16.003Z,14.3
2022-08-22T11:46:04.245Z,14.3
2022-08-22T11:46:52.537Z,14.3
2022-08-22T11:47:42.386Z,14.3
2022-08-22T11:48:29.761Z,14.3
2022-08-22T11:49:17.135Z,14.3
2022-08-22T11:50:13.639Z,14.3
2022-08-22T11:51:01.396Z,14.3
2022-08-22T11:51:49.563Z,14.3
2022-08-22T11:52:37.009Z,14.3
2022-08-22T11:53:24.380Z,14.3
2022-08-22T11:54:11.750Z,14.3
2022-08-22T11:54:59.733Z,14.3
2022-08-22T11:55:47.170Z,14.3
2022-08-22T11:56:34.556Z,14.3
2022-08-22T11:57:21.950Z,14.3
2022-08-22T11:58:09.357Z,14.3
2022-08-22T11:58:56.736Z,14.3
2022-08-22T11:59:44.305Z,14.3
2022-08-22T12:00:31.693Z,21.2
2022-08-22T12:01:19.070Z,21.2
2022-08-22T12:02:08.707Z,21.2
2022-08-22T12:02:56.283Z,21.2
2022-08-22T12:03:43.709Z,21.2
2022-08-22T12:04:31.673Z,21.2
2022-08-22T12:05:24.521Z,21.2
2022-08-22T12:06:13.910Z,21.2
2022-08-22T12:07:02.564Z,21.2
2022-08-22T12:07:50.615Z,21.2
2022-08-22T12:08:38.535Z,21.2
2022-08-22T12:09:27.489Z,21.2
2022-08-22T12:10:17.281Z,21.2
2022-08-22T12:11:05.123Z,21.2
2022-08-22T12:11:52.744Z,21.2
2022-08-22T12:12:42.145Z,21.2
2022-08-22T12:13:35.179Z,21.2
2022-08-22T12:14:26.984Z,21.2
2022-08-22T12:17:06.671Z,21.2
2022-08-22T12:18:01.827Z,21.2
2022-08-22T12:18:52.949Z,21.2
2022-08-22T12:19:58.853Z,21.2
2022-08-22T12:20:37.886Z,21.2
2022-08-22T12:21:25.333Z,21.2
2022-08-22T12:22:12.690Z,21.2
2022-08-22T12:23:00.062Z,21.2
2022-08-22T12:23:49.492Z,21.2
2022-08-22T12:24:37.832Z,21.2
2022-08-22T12:25:25.176Z,21.2
2022-08-22T12:26:12.541Z,21.2
2022-08-22T12:26:59.886Z,21.2
2022-08-22T12:27:48.597Z,21.2
2022-08-22T12:28:41.478Z,21.2
2022-08-22T12:29:34.018Z,21.2
2022-08-22T12:30:26.204Z,21.2
2022-08-22T12:31:13.662Z,21.2
2022-08-22T12:32:01.025Z,21.2
2022-08-22T12:32:49.487Z,21.2
2022-08-22T12:33:36.882Z,21.2
2022-08-22T12:34:24.884Z,21.2
2022-08-22T12:35:14.124Z,21.2
2022-08-22T12:36:01.833Z,21.2
2022-08-22T12:36:49.259Z,21.2
2022-08-22T12:37:44.925Z,21.2
2022-08-22T12:38:37.807Z,21.2
2022-08-22T12:39:25.453Z,21.2
2022-08-22T12:40:12.945Z,21.2
2022-08-22T12:41:00.381Z,21.2
2022-08-22T12:41:48.284Z,21.2
2022-08-22T12:42:35.761Z,21.2
2022-08-22T12:43:23.618Z,21.2
2022-08-22T12:44:16.344Z,21.2
2022-08-22T12:45:04.436Z,21.2
2022-08-22T12:45:51.884Z,21.2
2022-08-22T12:46:47.318Z,21.2
2022-08-22T12:47:34.923Z,21.2
2022-08-22T12:48:22.315Z,21.2
2022-08-22T12:49:10.571Z,21.2
2022-08-22T12:49:58.356Z,21.2
2022-08-22T12:50:45.925Z,21.2
2022-08-22T12:51:33.263Z,21.2
2022-08-22T12:52:20.612Z,21.2
2022-08-22T12:53:08.886Z,21.2
2022-08-22T12:53:56.250Z,21.2
2022-08-22T12:54:43.613Z,21.2
2022-08-22T12:55:31.534Z,21.2
2022-08-22T12:56:19.682Z,21.2
2022-08-22T12:57:10.595Z,21.2
2022-08-22T12:58:06.908Z,21.2
2022-08-22T12:58:55.453Z,21.2
2022-08-22T12:59:43.147Z,21.2
2022-08-22T13:00:30.818Z,15.1
2022-08-22T13:01:18.248Z,15.1
2022-08-22T13:02:10.546Z,15.1
2022-08-22T13:02:57.964Z,15.1
2022-08-22T13:03:45.374Z,15.1
2022-08-22T13:04:34.077Z,15.1
2022-08-22T13:05:21.692Z,15.1
2022-08-22T13:06:13.770Z,15.1
2022-08-22T13:07:02.569Z,15.1
2022-08-22T13:07:50.517Z,15.1
2022-08-22T13:08:39.112Z,15.1
2022-08-22T13:09:28.623Z,15.1
2022-08-22T13:10:17.466Z,15.1
2022-08-22T13:11:04.980Z,15.1
2022-08-22T13:11:59.641Z,15.1
2022-08-22T13:12:49.832Z,15.1
2022-08-22T13:13:38.721Z,15.1
2022-08-22T13:14:26.276Z,15.1
2022-08-22T13:15:13.623Z,15.1
2022-08-22T13:16:00.983Z,15.1
2022-08-22T13:16:48.838Z,15.1
2022-08-22T13:17:38.442Z,15.1
2022-08-22T13:18:31.117Z,15.1
2022-08-22T13:19:18.754Z,15.1
2022-08-22T13:20:06.178Z,15.1
2022-08-22T13:21:44.200Z,15.1
2022-08-22T13:22:31.630Z,15.1
2022-08-22T13:23:19.188Z,15.1
2022-08-22T13:24:06.534Z,15.1
2022-08-22T13:24:58.014Z,15.1
2022-08-22T13:25:45.428Z,15.1
2022-08-22T13:26:40.789Z,15.1
2022-08-22T13:27:31.196Z,15.1
2022-08-22T13:28:18.607Z,15.1
2022-08-22T13:30:03.303Z,15.1
2022-08-22T13:30:50.712Z,15.1
2022-08-22T13:31:38.035Z,15.1
2022-08-22T13:32:26.268Z,15.1
2022-08-22T13:33:15.075Z,15.1
2022-08-22T13:34:02.516Z,15.1
2022-08-22T13:34:49.838Z,15.1
2022-08-22T13:35:37.148Z,15.1
2022-08-22T13:36:30.647Z,15.1
2022-08-22T13:37:18.083Z,15.1
2022-08-22T13:38:12.067Z,15.1
2022-08-22T13:38:59.808Z,15.1
2022-08-22T13:39:49.171Z,15.1
2022-08-22T13:40:36.658Z,15.1
2022-08-22T13:41:24.902Z,15.1
2022-08-22T13:42:14.317Z,15.1
2022-08-22T13:43:07.470Z,15.1
2022-08-22T13:43:55.104Z,15.1
2022-08-22T13:44:43.173Z,15.1
2022-08-22T13:45:31.257Z,15.1
2022-08-22T13:46:19.141Z,15.1
2022-08-22T13:47:14.402Z,15.1
2022-08-22T13:48:03.642Z,15.1
2022-08-22T13:49:38.785Z,15.1
2022-08-22T13:50:26.119Z,15.1
2022-08-22T13:51:13.798Z,15.1
2022-08-22T13:52:01.185Z,15.1
2022-08-22T13:52:52.517Z,15.1
2022-08-22T13:53:48.954Z,15.1
2022-08-22T13:54:40.527Z,15.1
2022-08-22T13:55:30.052Z,15.1
2022-08-22T13:56:17.578Z,15.1
2022-08-22T13:57:04.916Z,15.1
2022-08-22T13:57:54.068Z,15.1
2022-08-22T13:58:41.475Z,15.1
2022-08-22T13:59:49.100Z,15.1
2022-08-22T14:00:29.201Z,15.4
2022-08-22T14:01:17.469Z,15.4
2022-08-22T14:02:05.020Z,15.4
2022-08-22T14:02:53.479Z,15.4
2022-08-22T14:03:40.853Z,15.4
2022-08-22T14:04:32.118Z,15.4
2022-08-22T14:05:23.834Z,15.4
2022-08-22T14:06:38.055Z,15.4
2022-08-22T14:07:08.533Z,15.4
2022-08-22T14:07:55.942Z,15.4
2022-08-22T14:08:46.006Z,15.4
2022-08-22T14:09:33.415Z,15.4
2022-08-22T14:10:21.062Z,15.4
2022-08-22T14:11:08.390Z,15.4
2022-08-22T14:11:57.173Z,15.4
2022-08-22T14:12:50.685Z,15.4
2022-08-22T14:13:38.566Z,15.4
2022-08-22T14:14:26.419Z,15.4
2022-08-22T14:15:13.994Z,15.4
2022-08-22T14:16:01.320Z,15.4
2022-08-22T14:16:48.728Z,15.4
2022-08-22T14:17:40.710Z,15.4
2022-08-22T14:18:31.476Z,15.4
2022-08-22T14:19:19.025Z,15.4
2022-08-22T14:20:06.875Z,15.4
2022-08-22T14:20:58.403Z,15.4
2022-08-22T14:21:46.030Z,15.4
2022-08-22T14:22:35.427Z,15.4
2022-08-22T14:23:23.907Z,15.4
2022-08-22T14:24:14.312Z,15.4
2022-08-22T14:25:01.738Z,15.4
2022-08-22T14:25:49.126Z,15.4
2022-08-22T14:26:47.201Z,15.4
2022-08-22T14:27:33.778Z,15.4
2022-08-22T14:28:21.198Z,15.4
2022-08-22T14:29:08.532Z,15.4
2022-08-22T14:29:55.863Z,15.4
2022-08-22T14:30:43.443Z,15.4
2022-08-22T14:31:30.883Z,15.4
2022-08-22T14:32:18.237Z,15.4
2022-08-22T14:33:10.053Z,15.4
2022-08-22T14:33:57.441Z,15.4
2022-08-22T14:34:45.435Z,15.4
2022-08-22T14:35:37.949Z,15.4
2022-08-22T14:36:25.528Z,15.4
2022-08-22T14:37:12.936Z,15.4
2022-08-22T14:38:00.719Z,15.4
2022-08-22T14:38:50.217Z,15.4
2022-08-22T14:39:37.793Z,15.4
2022-08-22T14:40:30.256Z,15.4
2022-08-22T14:41:17.708Z,15.4
2022-08-22T14:42:10.153Z,15.4
2022-08-22T14:42:59.262Z,15.4
2022-08-22T14:43:46.835Z,15.4
2022-08-22T14:44:34.169Z,15.4
2022-08-22T14:45:21.973Z,15.4
2022-08-22T14:46:10.931Z,15.4
2022-08-22T14:46:59.174Z,15.4
2022-08-22T14:48:29.241Z,15.4
2022-08-22T14:48:44.233Z,15.4
2022-08-22T14:49:31.731Z,15.4
2022-08-22T14:50:19.489Z,15.4
2022-08-22T14:51:08.553Z,15.4
2022-08-22T14:52:43.465Z,15.4
2022-08-22T14:53:31.742Z,15.4
2022-08-22T14:54:21.515Z,15.4
2022-08-22T14:55:09.233Z,15.4
2022-08-22T14:55:56.622Z,15.4
2022-08-22T14:56:43.938Z,15.4
2022-08-22T14:57:31.260Z,15.4
2022-08-22T14:58:27.660Z,15.4
2022-08-22T14:59:15.149Z,15.4
2022-08-22T15:00:03.212Z,15.4
2022-08-22T15:00:51.576Z,15.7
2022-08-22T15:01:38.941Z,15.7
2022-08-22T15:02:26.381Z,15.7
2022-08-22T15:03:13.831Z,15.7
2022-08-22T15:04:01.137Z,15.7
2022-08-22T15:04:49.533Z,15.7
2022-08-22T15:05:38.066Z,15.7
2022-08-22T15:06:32.839Z,15.7
2022-08-22T15:07:20.425Z,15.7
2022-08-22T15:08:07.761Z,15.7
2022-08-22T15:08:55.761Z,15.7
2022-08-22T15:09:43.150Z,15.7
2022-08-22T15:10:32.859Z,15.7
2022-08-22T15:11:21.530Z,15.7
2022-08-22T15:12:08.932Z,15.7
2022-08-22T15:19:42.909Z,15.7
2022-08-22T15:34:09.122Z,15.7
2022-08-22T15:41:41.435Z,15.7
2022-08-22T15:49:14.127Z,15.7
2022-08-22T15:56:46.568Z,15.7
2022-08-22T16:04:19.091Z,15.7
2022-08-22T16:11:51.426Z,10.2
2022-08-22T16:19:23.739Z,10.2
2022-08-22T16:26:56.047Z,10.2
2022-08-22T16:34:28.375Z,10.2
2022-08-22T16:42:00.808Z,10.2
2022-08-22T16:49:33.177Z,10.2
2022-08-22T16:57:05.510Z,10.2
2022-08-22T17:04:37.820Z,10.2
2022-08-22T17:12:10.128Z,7.6